Chantal — A8WQ3 — position and weather

sailwx.info

Track history (hours):
 
Tides and Currents Weather Stations Pressure Air Temp Water Temp Dewpoint Dewpoint Depression Visibility Wind Speed Wind Dir Waves Ship Positions

Chantal

Last reported at 2017-Jan-09 17:25 UTC. Time now 2017-Feb-20 08:54 UTC.
Position N 37°08' W 123°08'.
Warning: this ship's position is 41 days out of date.

Length 228 m; draft 8.2 m.

Type: Tanker. MMSI: 636014805.

Date/timePositionNaut miles runAvg speedWind from/ knotsBaromVisibWave heightAir tempDewpointWater temp
2017-Jan-09 17:25N 37°08' W 123°08'1112.1
2017-Jan-09 16:33N 37°19' W 123°09'1211.6
2017-Jan-09 15:33N 37°30' W 123°09'1211.9
2017-Jan-09 14:33N 37°38' W 122°57'1211.9
2017-Jan-09 13:33N 37°45' W 122°45'1110.9
2017-Jan-09 12:33N 37°48' W 122°32'1110.7
2017-Jan-09 11:33N 37°58' W 122°27'1313.2
2017-Jan-09 10:33N 38°03' W 122°11'3 0.1
2017-Jan-08 13:07N 38°02' W 122°07'1 1.1
2017-Jan-08 12:32N 38°02' W 122°08'5 5.2
2017-Jan-08 11:33N 38°04' W 122°14'8 8.2
2017-Jan-08 10:34N 38°01' W 122°24'8 8.2
2017-Jan-08 09:33N 37°53' W 122°26'8 7.2
2017-Jan-08 08:31N 37°46' W 122°21'0 0.1
2017-Jan-08 07:31N 37°46' W 122°21'0 0.0
2017-Jan-08 06:31N 37°46' W 122°21'0 0.0
2017-Jan-08 05:31N 37°46' W 122°21'0 0.2
2017-Jan-08 04:31N 37°46' W 122°21'0 0.1
2017-Jan-08 03:31N 37°46' W 122°21'0 0.0
2017-Jan-08 02:31N 37°46' W 122°21'0 0.0
2017-Jan-08 01:31N 37°46' W 122°21'0 0.0
2017-Jan-08 00:31N 37°46' W 122°21'0 0.2
2017-Jan-07 23:31N 37°46' W 122°21'0 0.1
2017-Jan-07 22:31N 37°46' W 122°21'0 0.1
2017-Jan-07 21:31N 37°46' W 122°21'0 0.0
2017-Jan-07 20:31N 37°46' W 122°21'0 0.0
2017-Jan-07 19:31N 37°46' W 122°21'0 0.0
2017-Jan-07 18:31N 37°46' W 122°21'0 0.0
2017-Jan-07 17:31N 37°46' W 122°21'0 0.0
2017-Jan-07 16:31N 37°46' W 122°21'0 0.1
2017-Jan-07 15:31N 37°46' W 122°21'0 0.4
2017-Jan-07 14:31N 37°46' W 122°21'0 0.0
2017-Jan-07 13:31N 37°46' W 122°21'0 0.0
2017-Jan-07 12:31N 37°46' W 122°21'0 0.0
2017-Jan-07 11:31N 37°46' W 122°21'0 0.1
2017-Jan-07 10:31N 37°46' W 122°21'0 0.0
2017-Jan-07 09:31N 37°46' W 122°21'0 0.2
2017-Jan-07 08:31N 37°46' W 122°21'0 0.0
2017-Jan-07 07:31N 37°46' W 122°21'0 0.0
2017-Jan-07 06:31N 37°46' W 122°21'0 0.0
2017-Jan-07 05:31N 37°46' W 122°21'0 0.0
2017-Jan-07 04:31N 37°46' W 122°21'0 0.2
2017-Jan-07 03:31N 37°46' W 122°21'0 0.1
2017-Jan-07 02:31N 37°46' W 122°21'0 0.0
2017-Jan-07 01:31N 37°46' W 122°21'0 0.0
2017-Jan-07 00:31N 37°46' W 122°21'0 0.0
2017-Jan-06 23:31N 37°46' W 122°21'0 0.1
2017-Jan-06 22:31N 37°46' W 122°21'0 0.1
2017-Jan-06 21:31N 37°46' W 122°21'0 0.2
2017-Jan-06 20:31N 37°46' W 122°21'0 0.1
2017-Jan-06 19:31N 37°46' W 122°21'0 0.0
2017-Jan-06 18:31N 37°46' W 122°21'0 0.0
2017-Jan-06 17:31N 37°46' W 122°21'0 0.0
2017-Jan-06 16:31N 37°46' W 122°21'0 0.0
2017-Jan-06 15:34N 37°46' W 122°21'0 0.2
2017-Jan-06 14:31N 37°46' W 122°21'0 0.1
2017-Jan-06 13:31N 37°46' W 122°21'0 0.0
2017-Jan-06 12:31N 37°46' W 122°21'0 0.0
2017-Jan-06 11:31N 37°46' W 122°21'0 0.0
2017-Jan-06 10:31N 37°46' W 122°21'0 0.0
2017-Jan-06 09:31N 37°46' W 122°21'0 0.1
2017-Jan-06 08:31N 37°46' W 122°21'0 0.2
2017-Jan-06 07:31N 37°46' W 122°21'0 0.0
2017-Jan-06 06:31N 37°46' W 122°21'0 0.0
2017-Jan-06 05:31N 37°46' W 122°21'0 0.0
2017-Jan-06 04:31N 37°46' W 122°21'0 0.0
2017-Jan-06 03:31N 37°46' W 122°21'0 0.2
2017-Jan-06 02:31N 37°46' W 122°21'0 0.2
2017-Jan-06 01:31N 37°46' W 122°21'0 0.0
2017-Jan-06 00:31N 37°46' W 122°21'0 0.1
2017-Jan-05 23:31N 37°46' W 122°21'0 0.0
2017-Jan-05 22:31N 37°46' W 122°21'0 0.1
2017-Jan-05 21:31N 37°46' W 122°21'0 0.1
2017-Jan-05 20:31N 37°46' W 122°21'0 0.2
2017-Jan-05 19:31N 37°46' W 122°21'0 0.1
2017-Jan-05 18:31N 37°46' W 122°21'0 0.0
2017-Jan-05 17:31N 37°46' W 122°21'0 0.0
2017-Jan-05 16:31N 37°46' W 122°21'0 0.1
2017-Jan-05 15:31N 37°46' W 122°21'0 0.3
2017-Jan-05 14:31N 37°46' W 122°21'0 0.0
2017-Jan-05 13:31N 37°46' W 122°21'0 0.0
2017-Jan-05 12:31N 37°46' W 122°21'0 0.0
2017-Jan-05 11:31N 37°46' W 122°21'0 0.0
2017-Jan-05 10:31N 37°46' W 122°21'0 0.1
2017-Jan-05 09:31N 37°46' W 122°21'0 0.0
2017-Jan-05 08:31N 37°46' W 122°21'0 0.0
2017-Jan-05 07:31N 37°46' W 122°21'0 0.2
2017-Jan-05 06:31N 37°46' W 122°21'0 0.0
2017-Jan-05 05:31N 37°46' W 122°21'0 0.0
2017-Jan-05 04:31N 37°46' W 122°21'0 0.0
2017-Jan-05 03:34N 37°46' W 122°21'0 0.0
2017-Jan-05 02:34N 37°46' W 122°21'0 0.1
2017-Jan-05 01:31N 37°46' W 122°21'0 0.2
2017-Jan-05 00:34N 37°46' W 122°21'0 0.0
2017-Jan-04 23:31N 37°46' W 122°21'0 0.5
2017-Jan-04 22:34N 37°46' W 122°21'9 8.5
2017-Jan-04 21:34N 37°48' W 122°32'1211.8
2017-Jan-04 20:33N 37°42' W 122°45'1010.0
2017-Jan-04 19:33N 37°36' W 122°56'1312.6
2017-Jan-04 18:33N 37°29' W 123°08'  
2016-Dec-31 09:33N 37°31' W 123°06'1212.2
2016-Dec-31 08:33N 37°39' W 122°55'1312.6
2016-Dec-31 07:33N 37°44' W 122°40'10 9.6
2016-Dec-31 06:34N 37°49' W 122°30'10 9.6
2016-Dec-31 05:33N 37°58' W 122°27'1312.4
2016-Dec-31 04:32N 38°04' W 122°12'  
Track history (hours):
 
Tides and Currents Weather Stations Pressure Air Temp Water Temp Dewpoint Dewpoint Depression Visibility Wind Speed Wind Dir Waves Ship Positions

Chantal

Last reported at 2017-Jan-09 17:25 UTC. Time now 2017-Feb-20 08:54 UTC.
Position N 37°08' W 123°08'.
Warning: this ship's position is 41 days out of date.

Length 228 m; draft 8.2 m.

Type: Tanker. MMSI: 636014805.

Date/timePositionNaut miles runAvg speedWind from/ knotsBaromVisibWave heightAir tempDewpointWater temp
2017-Jan-09 17:25N 37°08' W 123°08'1112.1
2017-Jan-09 16:33N 37°19' W 123°09'1211.6
2017-Jan-09 15:33N 37°30' W 123°09'1211.9
2017-Jan-09 14:33N 37°38' W 122°57'1211.9
2017-Jan-09 13:33N 37°45' W 122°45'1110.9
2017-Jan-09 12:33N 37°48' W 122°32'1110.7
2017-Jan-09 11:33N 37°58' W 122°27'1313.2
2017-Jan-09 10:33N 38°03' W 122°11'3 0.1
2017-Jan-08 13:07N 38°02' W 122°07'1 1.1
2017-Jan-08 12:32N 38°02' W 122°08'5 5.2
2017-Jan-08 11:33N 38°04' W 122°14'8 8.2
2017-Jan-08 10:34N 38°01' W 122°24'8 8.2
2017-Jan-08 09:33N 37°53' W 122°26'8 7.2
2017-Jan-08 08:31N 37°46' W 122°21'0 0.1
2017-Jan-08 07:31N 37°46' W 122°21'0 0.0
2017-Jan-08 06:31N 37°46' W 122°21'0 0.0
2017-Jan-08 05:31N 37°46' W 122°21'0 0.2
2017-Jan-08 04:31N 37°46' W 122°21'0 0.1
2017-Jan-08 03:31N 37°46' W 122°21'0 0.0
2017-Jan-08 02:31N 37°46' W 122°21'0 0.0
2017-Jan-08 01:31N 37°46' W 122°21'0 0.0
2017-Jan-08 00:31N 37°46' W 122°21'0 0.2
2017-Jan-07 23:31N 37°46' W 122°21'0 0.1
2017-Jan-07 22:31N 37°46' W 122°21'0 0.1
2017-Jan-07 21:31N 37°46' W 122°21'0 0.0
2017-Jan-07 20:31N 37°46' W 122°21'0 0.0
2017-Jan-07 19:31N 37°46' W 122°21'0 0.0
2017-Jan-07 18:31N 37°46' W 122°21'0 0.0
2017-Jan-07 17:31N 37°46' W 122°21'0 0.0
2017-Jan-07 16:31N 37°46' W 122°21'0 0.1
2017-Jan-07 15:31N 37°46' W 122°21'0 0.4
2017-Jan-07 14:31N 37°46' W 122°21'0 0.0
2017-Jan-07 13:31N 37°46' W 122°21'0 0.0
2017-Jan-07 12:31N 37°46' W 122°21'0 0.0
2017-Jan-07 11:31N 37°46' W 122°21'0 0.1
2017-Jan-07 10:31N 37°46' W 122°21'0 0.0
2017-Jan-07 09:31N 37°46' W 122°21'0 0.2
2017-Jan-07 08:31N 37°46' W 122°21'0 0.0
2017-Jan-07 07:31N 37°46' W 122°21'0 0.0
2017-Jan-07 06:31N 37°46' W 122°21'0 0.0
2017-Jan-07 05:31N 37°46' W 122°21'0 0.0
2017-Jan-07 04:31N 37°46' W 122°21'0 0.2
2017-Jan-07 03:31N 37°46' W 122°21'0 0.1
2017-Jan-07 02:31N 37°46' W 122°21'0 0.0
2017-Jan-07 01:31N 37°46' W 122°21'0 0.0
2017-Jan-07 00:31N 37°46' W 122°21'0 0.0
2017-Jan-06 23:31N 37°46' W 122°21'0 0.1
2017-Jan-06 22:31N 37°46' W 122°21'0 0.1
2017-Jan-06 21:31N 37°46' W 122°21'0 0.2
2017-Jan-06 20:31N 37°46' W 122°21'0 0.1
2017-Jan-06 19:31N 37°46' W 122°21'0 0.0
2017-Jan-06 18:31N 37°46' W 122°21'0 0.0
2017-Jan-06 17:31N 37°46' W 122°21'0 0.0
2017-Jan-06 16:31N 37°46' W 122°21'0 0.0
2017-Jan-06 15:34N 37°46' W 122°21'0 0.2
2017-Jan-06 14:31N 37°46' W 122°21'0 0.1
2017-Jan-06 13:31N 37°46' W 122°21'0 0.0
2017-Jan-06 12:31N 37°46' W 122°21'0 0.0
2017-Jan-06 11:31N 37°46' W 122°21'0 0.0
2017-Jan-06 10:31N 37°46' W 122°21'0 0.0
2017-Jan-06 09:31N 37°46' W 122°21'0 0.1
2017-Jan-06 08:31N 37°46' W 122°21'0 0.2
2017-Jan-06 07:31N 37°46' W 122°21'0 0.0
2017-Jan-06 06:31N 37°46' W 122°21'0 0.0
2017-Jan-06 05:31N 37°46' W 122°21'0 0.0
2017-Jan-06 04:31N 37°46' W 122°21'0 0.0
2017-Jan-06 03:31N 37°46' W 122°21'0 0.2
2017-Jan-06 02:31N 37°46' W 122°21'0 0.2
2017-Jan-06 01:31N 37°46' W 122°21'0 0.0
2017-Jan-06 00:31N 37°46' W 122°21'0 0.1
2017-Jan-05 23:31N 37°46' W 122°21'0 0.0
2017-Jan-05 22:31N 37°46' W 122°21'0 0.1
2017-Jan-05 21:31N 37°46' W 122°21'0 0.1
2017-Jan-05 20:31N 37°46' W 122°21'0 0.2
2017-Jan-05 19:31N 37°46' W 122°21'0 0.1
2017-Jan-05 18:31N 37°46' W 122°21'0 0.0
2017-Jan-05 17:31N 37°46' W 122°21'0 0.0
2017-Jan-05 16:31N 37°46' W 122°21'0 0.1
2017-Jan-05 15:31N 37°46' W 122°21'0 0.3
2017-Jan-05 14:31N 37°46' W 122°21'0 0.0
2017-Jan-05 13:31N 37°46' W 122°21'0 0.0
2017-Jan-05 12:31N 37°46' W 122°21'0 0.0
2017-Jan-05 11:31N 37°46' W 122°21'0 0.0
2017-Jan-05 10:31N 37°46' W 122°21'0 0.1
2017-Jan-05 09:31N 37°46' W 122°21'0 0.0
2017-Jan-05 08:31N 37°46' W 122°21'0 0.0
2017-Jan-05 07:31N 37°46' W 122°21'0 0.2
2017-Jan-05 06:31N 37°46' W 122°21'0 0.0
2017-Jan-05 05:31N 37°46' W 122°21'0 0.0
2017-Jan-05 04:31N 37°46' W 122°21'0 0.0
2017-Jan-05 03:34N 37°46' W 122°21'0 0.0
2017-Jan-05 02:34N 37°46' W 122°21'0 0.1
2017-Jan-05 01:31N 37°46' W 122°21'0 0.2
2017-Jan-05 00:34N 37°46' W 122°21'0 0.0
2017-Jan-04 23:31N 37°46' W 122°21'0 0.5
2017-Jan-04 22:34N 37°46' W 122°21'9 8.5
2017-Jan-04 21:34N 37°48' W 122°32'1211.8
2017-Jan-04 20:33N 37°42' W 122°45'1010.0
2017-Jan-04 19:33N 37°36' W 122°56'1312.6
2017-Jan-04 18:33N 37°29' W 123°08'  
2016-Dec-31 09:33N 37°31' W 123°06'1212.2
2016-Dec-31 08:33N 37°39' W 122°55'1312.6
2016-Dec-31 07:33N 37°44' W 122°40'10 9.6
2016-Dec-31 06:34N 37°49' W 122°30'10 9.6
2016-Dec-31 05:33N 37°58' W 122°27'1312.4
2016-Dec-31 04:32N 38°04' W 122°12'  

Dump ship's entire track history